sensor_id;sensor_type;location;lat;lon;timestamp;P1;durP1;ratioP1;P2;durP2;ratioP2
65035;SDS011;51603;49.300;8.880;2022-12-29T00:01:38;8.70;;;7.80;;
65035;SDS011;51603;49.300;8.880;2022-12-29T00:04:04;11.33;;;9.67;;
65035;SDS011;51603;49.300;8.880;2022-12-29T00:06:30;10.00;;;9.00;;
65035;SDS011;51603;49.300;8.880;2022-12-29T00:08:56;8.63;;;7.20;;
65035;SDS011;51603;49.300;8.880;2022-12-29T00:11:25;11.50;;;10.30;;
65035;SDS011;51603;49.300;8.880;2022-12-29T00:13:52;14.03;;;9.90;;
65035;SDS011;51603;49.300;8.880;2022-12-29T00:16:37;10.03;;;8.33;;
65035;SDS011;51603;49.300;8.880;2022-12-29T00:19:05;13.53;;;9.37;;
65035;SDS011;51603;49.300;8.880;2022-12-29T00:21:31;10.73;;;9.30;;
65035;SDS011;51603;49.300;8.880;2022-12-29T00:24:19;12.47;;;10.90;;
65035;SDS011;51603;49.300;8.880;2022-12-29T00:26:56;13.00;;;9.80;;
65035;SDS011;51603;49.300;8.880;2022-12-29T00:29:47;10.30;;;7.60;;
65035;SDS011;51603;49.300;8.880;2022-12-29T00:32:31;6.43;;;4.60;;
65035;SDS011;51603;49.300;8.880;2022-12-29T00:37:52;3.97;;;2.00;;
65035;SDS011;51603;49.300;8.880;2022-12-29T00:40:39;2.37;;;2.17;;
65035;SDS011;51603;49.300;8.880;2022-12-29T00:43:23;6.60;;;2.10;;
65035;SDS011;51603;49.300;8.880;2022-12-29T00:46:07;2.47;;;1.60;;
65035;SDS011;51603;49.300;8.880;2022-12-29T00:48:33;3.03;;;1.60;;
65035;SDS011;51603;49.300;8.880;2022-12-29T00:51:17;2.30;;;1.63;;
65035;SDS011;51603;49.300;8.880;2022-12-29T00:53:42;2.70;;;1.80;;
65035;SDS011;51603;49.300;8.880;2022-12-29T00:56:08;3.60;;;1.90;;
65035;SDS011;51603;49.300;8.880;2022-12-29T00:58:33;1.83;;;1.63;;
65035;SDS011;51603;49.300;8.880;2022-12-29T01:01:03;2.47;;;1.50;;
65035;SDS011;51603;49.300;8.880;2022-12-29T01:03:33;6.30;;;1.73;;
65035;SDS011;51603;49.300;8.880;2022-12-29T01:06:00;1.60;;;1.50;;
65035;SDS011;51603;49.300;8.880;2022-12-29T01:08:27;4.70;;;2.30;;
65035;SDS011;51603;49.300;8.880;2022-12-29T01:11:03;3.20;;;1.73;;
65035;SDS011;51603;49.300;8.880;2022-12-29T01:13:31;4.37;;;1.80;;
65035;SDS011;51603;49.300;8.880;2022-12-29T01:15:57;2.13;;;1.70;;
65035;SDS011;51603;49.300;8.880;2022-12-29T01:18:23;2.80;;;1.50;;
65035;SDS011;51603;49.300;8.880;2022-12-29T01:20:50;2.20;;;1.73;;
65035;SDS011;51603;49.300;8.880;2022-12-29T01:23:16;2.60;;;1.90;;
65035;SDS011;51603;49.300;8.880;2022-12-29T01:25:42;5.77;;;2.20;;
65035;SDS011;51603;49.300;8.880;2022-12-29T01:28:07;2.27;;;2.00;;
65035;SDS011;51603;49.300;8.880;2022-12-29T01:30:33;3.10;;;1.60;;
65035;SDS011;51603;49.300;8.880;2022-12-29T01:32:59;3.23;;;1.60;;
65035;SDS011;51603;49.300;8.880;2022-12-29T01:35:25;3.40;;;2.43;;
65035;SDS011;51603;49.300;8.880;2022-12-29T01:37:51;3.33;;;1.70;;
65035;SDS011;51603;49.300;8.880;2022-12-29T01:40:16;1.50;;;1.37;;
65035;SDS011;51603;49.300;8.880;2022-12-29T01:42:42;4.43;;;1.70;;
65035;SDS011;51603;49.300;8.880;2022-12-29T01:45:12;3.43;;;1.30;;
65035;SDS011;51603;49.300;8.880;2022-12-29T01:47:40;3.03;;;1.80;;
65035;SDS011;51603;49.300;8.880;2022-12-29T01:50:29;5.77;;;1.63;;
65035;SDS011;51603;49.300;8.880;2022-12-29T01:53:05;5.00;;;2.00;;
65035;SDS011;51603;49.300;8.880;2022-12-29T01:55:40;2.37;;;1.67;;
65035;SDS011;51603;49.300;8.880;2022-12-29T01:58:09;2.83;;;1.70;;
65035;SDS011;51603;49.300;8.880;2022-12-29T02:00:37;1.93;;;1.50;;
65035;SDS011;51603;49.300;8.880;2022-12-29T02:03:02;3.20;;;1.80;;
65035;SDS011;51603;49.300;8.880;2022-12-29T02:05:32;6.90;;;2.00;;
65035;SDS011;51603;49.300;8.880;2022-12-29T02:08:02;2.27;;;1.47;;
65035;SDS011;51603;49.300;8.880;2022-12-29T02:10:30;6.00;;;2.10;;
65035;SDS011;51603;49.300;8.880;2022-12-29T02:12:58;4.37;;;1.80;;
65035;SDS011;51603;49.300;8.880;2022-12-29T02:23:45;2.77;;;2.10;;
65035;SDS011;51603;49.300;8.880;2022-12-29T02:31:58;3.53;;;2.50;;
65035;SDS011;51603;49.300;8.880;2022-12-29T02:37:29;3.77;;;2.20;;
65035;SDS011;51603;49.300;8.880;2022-12-29T02:40:14;4.20;;;2.20;;
65035;SDS011;51603;49.300;8.880;2022-12-29T02:42:51;4.93;;;1.97;;
65035;SDS011;51603;49.300;8.880;2022-12-29T02:45:45;3.97;;;2.50;;
65035;SDS011;51603;49.300;8.880;2022-12-29T02:51:00;2.63;;;2.20;;
65035;SDS011;51603;49.300;8.880;2022-12-29T02:53:28;3.33;;;2.60;;
65035;SDS011;51603;49.300;8.880;2022-12-29T02:56:15;7.07;;;3.57;;
65035;SDS011;51603;49.300;8.880;2022-12-29T02:58:41;5.10;;;4.10;;
65035;SDS011;51603;49.300;8.880;2022-12-29T03:04:04;2.90;;;2.40;;
65035;SDS011;51603;49.300;8.880;2022-12-29T03:09:40;3.47;;;2.43;;
65035;SDS011;51603;49.300;8.880;2022-12-29T03:15:34;3.00;;;2.03;;
65035;SDS011;51603;49.300;8.880;2022-12-29T03:18:40;2.60;;;2.20;;
65035;SDS011;51603;49.300;8.880;2022-12-29T03:21:27;6.57;;;2.50;;
65035;SDS011;51603;49.300;8.880;2022-12-29T03:24:19;4.97;;;2.70;;
65035;SDS011;51603;49.300;8.880;2022-12-29T03:26:53;3.77;;;2.17;;
65035;SDS011;51603;49.300;8.880;2022-12-29T03:29:23;3.30;;;2.10;;
65035;SDS011;51603;49.300;8.880;2022-12-29T03:31:50;3.43;;;2.20;;
65035;SDS011;51603;49.300;8.880;2022-12-29T03:34:19;4.70;;;2.70;;
65035;SDS011;51603;49.300;8.880;2022-12-29T03:36:58;3.47;;;2.70;;
65035;SDS011;51603;49.300;8.880;2022-12-29T03:39:27;5.90;;;4.20;;
65035;SDS011;51603;49.300;8.880;2022-12-29T03:42:01;8.60;;;6.20;;
65035;SDS011;51603;49.300;8.880;2022-12-29T03:44:37;11.00;;;4.40;;
65035;SDS011;51603;49.300;8.880;2022-12-29T03:47:05;5.57;;;3.90;;
65035;SDS011;51603;49.300;8.880;2022-12-29T03:49:31;6.07;;;4.13;;
65035;SDS011;51603;49.300;8.880;2022-12-29T03:51:57;3.97;;;3.50;;
65035;SDS011;51603;49.300;8.880;2022-12-29T03:54:23;4.00;;;3.70;;
65035;SDS011;51603;49.300;8.880;2022-12-29T03:56:49;3.67;;;2.83;;
65035;SDS011;51603;49.300;8.880;2022-12-29T03:59:14;5.43;;;2.80;;
65035;SDS011;51603;49.300;8.880;2022-12-29T04:01:40;2.57;;;2.10;;
65035;SDS011;51603;49.300;8.880;2022-12-29T04:04:05;4.43;;;2.10;;
65035;SDS011;51603;49.300;8.880;2022-12-29T04:06:31;4.10;;;2.20;;
65035;SDS011;51603;49.300;8.880;2022-12-29T04:08:56;3.03;;;2.53;;
65035;SDS011;51603;49.300;8.880;2022-12-29T04:11:22;5.43;;;2.10;;
65035;SDS011;51603;49.300;8.880;2022-12-29T04:13:48;10.90;;;2.10;;
65035;SDS011;51603;49.300;8.880;2022-12-29T04:16:13;2.30;;;1.70;;
65035;SDS011;51603;49.300;8.880;2022-12-29T04:18:39;6.10;;;2.03;;
65035;SDS011;51603;49.300;8.880;2022-12-29T04:21:04;2.70;;;1.60;;
65035;SDS011;51603;49.300;8.880;2022-12-29T04:23:32;4.03;;;1.50;;
65035;SDS011;51603;49.300;8.880;2022-12-29T04:26:00;3.30;;;2.13;;
65035;SDS011;51603;49.300;8.880;2022-12-29T04:28:26;3.43;;;2.03;;
65035;SDS011;51603;49.300;8.880;2022-12-29T04:30:52;2.70;;;2.03;;
65035;SDS011;51603;49.300;8.880;2022-12-29T04:33:18;3.40;;;1.70;;
65035;SDS011;51603;49.300;8.880;2022-12-29T04:35:44;2.70;;;1.80;;
65035;SDS011;51603;49.300;8.880;2022-12-29T04:38:10;3.97;;;1.70;;
65035;SDS011;51603;49.300;8.880;2022-12-29T04:40:37;4.63;;;1.97;;
65035;SDS011;51603;49.300;8.880;2022-12-29T04:43:04;2.50;;;1.57;;
65035;SDS011;51603;49.300;8.880;2022-12-29T04:45:30;2.10;;;1.70;;
65035;SDS011;51603;49.300;8.880;2022-12-29T04:47:55;4.03;;;1.63;;
65035;SDS011;51603;49.300;8.880;2022-12-29T04:50:21;1.53;;;1.40;;
65035;SDS011;51603;49.300;8.880;2022-12-29T04:52:47;2.37;;;1.60;;
65035;SDS011;51603;49.300;8.880;2022-12-29T04:55:12;3.27;;;1.67;;
65035;SDS011;51603;49.300;8.880;2022-12-29T04:57:38;2.23;;;1.13;;
65035;SDS011;51603;49.300;8.880;2022-12-29T05:00:03;3.53;;;1.60;;
65035;SDS011;51603;49.300;8.880;2022-12-29T05:02:29;2.07;;;1.50;;
65035;SDS011;51603;49.300;8.880;2022-12-29T05:04:55;1.90;;;1.37;;
65035;SDS011;51603;49.300;8.880;2022-12-29T05:07:21;2.13;;;1.13;;
65035;SDS011;51603;49.300;8.880;2022-12-29T05:09:46;1.70;;;1.50;;
65035;SDS011;51603;49.300;8.880;2022-12-29T05:12:12;2.00;;;1.63;;
65035;SDS011;51603;49.300;8.880;2022-12-29T05:14:37;2.13;;;1.20;;
65035;SDS011;51603;49.300;8.880;2022-12-29T05:17:03;3.47;;;1.27;;
65035;SDS011;51603;49.300;8.880;2022-12-29T05:19:28;1.57;;;1.23;;
65035;SDS011;51603;49.300;8.880;2022-12-29T05:21:54;2.30;;;1.67;;
65035;SDS011;51603;49.300;8.880;2022-12-29T05:24:19;1.43;;;1.13;;
65035;SDS011;51603;49.300;8.880;2022-12-29T05:26:45;2.00;;;1.40;;
65035;SDS011;51603;49.300;8.880;2022-12-29T05:29:10;3.23;;;1.57;;
65035;SDS011;51603;49.300;8.880;2022-12-29T05:31:36;1.77;;;1.13;;
65035;SDS011;51603;49.300;8.880;2022-12-29T05:34:02;8.13;;;1.77;;
65035;SDS011;51603;49.300;8.880;2022-12-29T05:36:27;1.37;;;1.23;;
65035;SDS011;51603;49.300;8.880;2022-12-29T05:38:53;2.90;;;1.43;;
65035;SDS011;51603;49.300;8.880;2022-12-29T05:41:19;4.30;;;2.03;;
65035;SDS011;51603;49.300;8.880;2022-12-29T05:43:44;2.03;;;1.33;;
65035;SDS011;51603;49.300;8.880;2022-12-29T05:46:10;1.90;;;1.70;;
65035;SDS011;51603;49.300;8.880;2022-12-29T05:48:35;2.03;;;1.60;;
65035;SDS011;51603;49.300;8.880;2022-12-29T05:51:01;2.60;;;1.57;;
65035;SDS011;51603;49.300;8.880;2022-12-29T05:53:26;2.70;;;1.90;;
65035;SDS011;51603;49.300;8.880;2022-12-29T05:55:52;3.73;;;2.10;;
65035;SDS011;51603;49.300;8.880;2022-12-29T05:58:17;4.50;;;2.20;;
65035;SDS011;51603;49.300;8.880;2022-12-29T06:00:43;2.23;;;1.60;;
65035;SDS011;51603;49.300;8.880;2022-12-29T06:03:09;2.70;;;1.60;;
65035;SDS011;51603;49.300;8.880;2022-12-29T06:05:34;2.67;;;2.00;;
65035;SDS011;51603;49.300;8.880;2022-12-29T06:08:00;2.57;;;1.30;;
65035;SDS011;51603;49.300;8.880;2022-12-29T06:10:25;2.63;;;1.57;;
65035;SDS011;51603;49.300;8.880;2022-12-29T06:12:51;2.67;;;1.70;;
65035;SDS011;51603;49.300;8.880;2022-12-29T06:15:17;2.73;;;2.07;;
65035;SDS011;51603;49.300;8.880;2022-12-29T06:17:42;4.13;;;1.50;;
65035;SDS011;51603;49.300;8.880;2022-12-29T06:20:08;2.80;;;1.73;;
65035;SDS011;51603;49.300;8.880;2022-12-29T06:22:35;4.53;;;1.60;;
65035;SDS011;51603;49.300;8.880;2022-12-29T06:25:01;1.60;;;1.50;;
65035;SDS011;51603;49.300;8.880;2022-12-29T06:27:27;2.30;;;1.50;;
65035;SDS011;51603;49.300;8.880;2022-12-29T06:29:53;2.60;;;1.40;;
65035;SDS011;51603;49.300;8.880;2022-12-29T06:32:18;2.10;;;1.70;;
65035;SDS011;51603;49.300;8.880;2022-12-29T06:34:44;2.10;;;1.67;;
65035;SDS011;51603;49.300;8.880;2022-12-29T06:37:10;5.40;;;1.57;;
65035;SDS011;51603;49.300;8.880;2022-12-29T06:39:35;5.67;;;1.80;;
65035;SDS011;51603;49.300;8.880;2022-12-29T06:42:01;2.33;;;1.70;;
65035;SDS011;51603;49.300;8.880;2022-12-29T06:44:27;2.07;;;1.70;;
65035;SDS011;51603;49.300;8.880;2022-12-29T06:46:52;3.50;;;1.70;;
65035;SDS011;51603;49.300;8.880;2022-12-29T06:49:17;5.70;;;1.50;;
65035;SDS011;51603;49.300;8.880;2022-12-29T06:51:43;1.90;;;1.53;;
65035;SDS011;51603;49.300;8.880;2022-12-29T06:54:09;3.00;;;1.40;;
65035;SDS011;51603;49.300;8.880;2022-12-29T06:56:34;2.67;;;1.70;;
65035;SDS011;51603;49.300;8.880;2022-12-29T06:59:00;1.20;;;1.10;;
65035;SDS011;51603;49.300;8.880;2022-12-29T07:01:26;3.20;;;1.70;;
65035;SDS011;51603;49.300;8.880;2022-12-29T07:03:51;2.93;;;1.80;;
65035;SDS011;51603;49.300;8.880;2022-12-29T07:06:17;2.27;;;1.53;;
65035;SDS011;51603;49.300;8.880;2022-12-29T07:08:43;2.23;;;1.57;;
65035;SDS011;51603;49.300;8.880;2022-12-29T07:11:08;2.27;;;1.47;;
65035;SDS011;51603;49.300;8.880;2022-12-29T07:13:34;3.00;;;2.13;;
65035;SDS011;51603;49.300;8.880;2022-12-29T07:16:04;1.90;;;1.50;;
65035;SDS011;51603;49.300;8.880;2022-12-29T07:18:30;3.20;;;1.87;;
65035;SDS011;51603;49.300;8.880;2022-12-29T07:20:56;2.07;;;1.87;;
65035;SDS011;51603;49.300;8.880;2022-12-29T07:23:21;2.33;;;1.87;;
65035;SDS011;51603;49.300;8.880;2022-12-29T07:25:47;3.30;;;1.97;;
65035;SDS011;51603;49.300;8.880;2022-12-29T07:28:12;2.27;;;2.07;;
65035;SDS011;51603;49.300;8.880;2022-12-29T07:30:38;4.07;;;2.20;;
65035;SDS011;51603;49.300;8.880;2022-12-29T07:33:03;3.20;;;1.73;;
65035;SDS011;51603;49.300;8.880;2022-12-29T07:35:29;2.20;;;2.00;;
65035;SDS011;51603;49.300;8.880;2022-12-29T07:37:55;2.23;;;1.80;;
65035;SDS011;51603;49.300;8.880;2022-12-29T07:40:20;1.77;;;1.30;;
65035;SDS011;51603;49.300;8.880;2022-12-29T07:42:46;4.07;;;1.90;;
65035;SDS011;51603;49.300;8.880;2022-12-29T07:45:11;2.77;;;1.70;;
65035;SDS011;51603;49.300;8.880;2022-12-29T07:47:37;1.60;;;1.37;;
65035;SDS011;51603;49.300;8.880;2022-12-29T07:50:02;3.40;;;1.73;;
65035;SDS011;51603;49.300;8.880;2022-12-29T07:52:28;3.67;;;1.80;;
65035;SDS011;51603;49.300;8.880;2022-12-29T07:54:54;2.77;;;2.10;;
65035;SDS011;51603;49.300;8.880;2022-12-29T07:57:19;2.90;;;1.73;;
65035;SDS011;51603;49.300;8.880;2022-12-29T07:59:45;3.30;;;2.00;;
65035;SDS011;51603;49.300;8.880;2022-12-29T08:02:10;4.27;;;1.83;;
65035;SDS011;51603;49.300;8.880;2022-12-29T08:04:36;2.43;;;1.23;;
65035;SDS011;51603;49.300;8.880;2022-12-29T08:07:02;2.83;;;1.57;;
65035;SDS011;51603;49.300;8.880;2022-12-29T08:09:27;5.20;;;2.60;;
65035;SDS011;51603;49.300;8.880;2022-12-29T08:11:53;3.17;;;1.67;;
65035;SDS011;51603;49.300;8.880;2022-12-29T08:14:19;4.67;;;2.40;;
65035;SDS011;51603;49.300;8.880;2022-12-29T08:16:44;4.50;;;2.60;;
65035;SDS011;51603;49.300;8.880;2022-12-29T08:19:10;2.83;;;1.77;;
65035;SDS011;51603;49.300;8.880;2022-12-29T08:21:36;3.83;;;2.03;;
65035;SDS011;51603;49.300;8.880;2022-12-29T08:24:02;3.60;;;1.60;;
65035;SDS011;51603;49.300;8.880;2022-12-29T08:26:28;3.20;;;1.90;;
65035;SDS011;51603;49.300;8.880;2022-12-29T08:28:53;2.40;;;1.80;;
65035;SDS011;51603;49.300;8.880;2022-12-29T08:34:23;3.30;;;2.00;;
65035;SDS011;51603;49.300;8.880;2022-12-29T08:36:48;3.50;;;2.20;;
65035;SDS011;51603;49.300;8.880;2022-12-29T08:39:14;3.60;;;2.13;;
65035;SDS011;51603;49.300;8.880;2022-12-29T08:41:40;3.57;;;2.30;;
65035;SDS011;51603;49.300;8.880;2022-12-29T08:44:05;4.53;;;2.10;;
65035;SDS011;51603;49.300;8.880;2022-12-29T08:46:31;2.80;;;1.97;;
65035;SDS011;51603;49.300;8.880;2022-12-29T08:48:56;3.93;;;2.20;;
65035;SDS011;51603;49.300;8.880;2022-12-29T08:51:22;6.37;;;2.47;;
65035;SDS011;51603;49.300;8.880;2022-12-29T08:53:48;2.33;;;1.83;;
65035;SDS011;51603;49.300;8.880;2022-12-29T08:56:13;2.90;;;2.07;;
65035;SDS011;51603;49.300;8.880;2022-12-29T08:58:39;3.17;;;2.03;;
65035;SDS011;51603;49.300;8.880;2022-12-29T09:01:05;3.73;;;1.90;;
65035;SDS011;51603;49.300;8.880;2022-12-29T09:03:31;2.87;;;2.23;;
65035;SDS011;51603;49.300;8.880;2022-12-29T09:05:56;4.20;;;2.07;;
65035;SDS011;51603;49.300;8.880;2022-12-29T09:08:22;2.87;;;2.13;;
65035;SDS011;51603;49.300;8.880;2022-12-29T09:10:48;4.73;;;2.40;;
65035;SDS011;51603;49.300;8.880;2022-12-29T09:13:14;3.40;;;1.90;;
65035;SDS011;51603;49.300;8.880;2022-12-29T09:15:40;3.40;;;2.07;;
65035;SDS011;51603;49.300;8.880;2022-12-29T09:18:06;2.83;;;2.23;;
65035;SDS011;51603;49.300;8.880;2022-12-29T09:20:34;5.50;;;2.30;;
65035;SDS011;51603;49.300;8.880;2022-12-29T09:23:00;3.77;;;1.80;;
65035;SDS011;51603;49.300;8.880;2022-12-29T09:25:26;3.43;;;2.07;;
65035;SDS011;51603;49.300;8.880;2022-12-29T09:27:52;3.60;;;2.50;;
65035;SDS011;51603;49.300;8.880;2022-12-29T09:30:19;3.83;;;2.03;;
65035;SDS011;51603;49.300;8.880;2022-12-29T09:32:45;3.90;;;2.50;;
65035;SDS011;51603;49.300;8.880;2022-12-29T09:35:12;3.20;;;2.50;;
65035;SDS011;51603;49.300;8.880;2022-12-29T09:37:38;2.13;;;1.93;;
65035;SDS011;51603;49.300;8.880;2022-12-29T09:40:04;3.30;;;1.90;;
65035;SDS011;51603;49.300;8.880;2022-12-29T09:42:32;2.33;;;2.13;;
65035;SDS011;51603;49.300;8.880;2022-12-29T09:47:31;6.57;;;2.30;;
65035;SDS011;51603;49.300;8.880;2022-12-29T09:49:59;3.53;;;2.57;;
65035;SDS011;51603;49.300;8.880;2022-12-29T09:52:31;4.53;;;2.53;;
65035;SDS011;51603;49.300;8.880;2022-12-29T09:55:05;4.30;;;2.30;;
65035;SDS011;51603;49.300;8.880;2022-12-29T09:57:43;3.03;;;2.53;;
65035;SDS011;51603;49.300;8.880;2022-12-29T10:00:37;3.87;;;2.07;;
65035;SDS011;51603;49.300;8.880;2022-12-29T10:03:16;2.50;;;1.87;;
65035;SDS011;51603;49.300;8.880;2022-12-29T10:11:01;4.30;;;2.53;;
65035;SDS011;51603;49.300;8.880;2022-12-29T10:16:43;6.30;;;2.40;;
65035;SDS011;51603;49.300;8.880;2022-12-29T10:22:17;3.10;;;2.50;;
65035;SDS011;51603;49.300;8.880;2022-12-29T10:24:54;4.20;;;2.07;;
65035;SDS011;51603;49.300;8.880;2022-12-29T10:27:21;4.43;;;2.40;;
65035;SDS011;51603;49.300;8.880;2022-12-29T10:29:55;3.93;;;1.90;;
65035;SDS011;51603;49.300;8.880;2022-12-29T10:35:00;5.60;;;2.60;;
65035;SDS011;51603;49.300;8.880;2022-12-29T10:37:51;5.10;;;2.37;;
65035;SDS011;51603;49.300;8.880;2022-12-29T10:40:42;3.30;;;2.47;;
65035;SDS011;51603;49.300;8.880;2022-12-29T10:43:16;4.00;;;2.87;;
65035;SDS011;51603;49.300;8.880;2022-12-29T10:45:45;4.23;;;3.93;;
65035;SDS011;51603;49.300;8.880;2022-12-29T10:48:44;4.30;;;2.37;;
65035;SDS011;51603;49.300;8.880;2022-12-29T10:51:07;4.57;;;2.70;;
65035;SDS011;51603;49.300;8.880;2022-12-29T10:53:35;4.83;;;3.83;;
65035;SDS011;51603;49.300;8.880;2022-12-29T10:56:51;5.80;;;2.47;;
65035;SDS011;51603;49.300;8.880;2022-12-29T10:59:21;3.43;;;2.07;;
65035;SDS011;51603;49.300;8.880;2022-12-29T11:02:12;3.57;;;2.00;;
65035;SDS011;51603;49.300;8.880;2022-12-29T11:07:40;4.90;;;1.80;;
65035;SDS011;51603;49.300;8.880;2022-12-29T11:13:13;2.30;;;1.40;;
65035;SDS011;51603;49.300;8.880;2022-12-29T11:15:45;2.83;;;2.00;;
65035;SDS011;51603;49.300;8.880;2022-12-29T11:18:25;1.53;;;1.30;;
65035;SDS011;51603;49.300;8.880;2022-12-29T11:26:52;2.53;;;1.40;;
65035;SDS011;51603;49.300;8.880;2022-12-29T11:29:29;3.07;;;2.50;;
65035;SDS011;51603;49.300;8.880;2022-12-29T11:34:42;2.57;;;1.80;;
65035;SDS011;51603;49.300;8.880;2022-12-29T11:39:50;2.07;;;1.60;;
65035;SDS011;51603;49.300;8.880;2022-12-29T11:45:19;5.20;;;3.13;;
65035;SDS011;51603;49.300;8.880;2022-12-29T11:47:48;2.80;;;1.67;;
65035;SDS011;51603;49.300;8.880;2022-12-29T11:50:23;4.33;;;2.10;;
65035;SDS011;51603;49.300;8.880;2022-12-29T11:52:59;4.27;;;1.80;;
65035;SDS011;51603;49.300;8.880;2022-12-29T11:55:30;3.60;;;2.10;;
65035;SDS011;51603;49.300;8.880;2022-12-29T11:57:57;2.93;;;1.47;;
65035;SDS011;51603;49.300;8.880;2022-12-29T12:00:27;3.67;;;2.20;;
65035;SDS011;51603;49.300;8.880;2022-12-29T12:03:12;2.20;;;1.70;;
65035;SDS011;51603;49.300;8.880;2022-12-29T12:05:48;2.00;;;1.50;;
65035;SDS011;51603;49.300;8.880;2022-12-29T12:08:28;3.00;;;1.63;;
65035;SDS011;51603;49.300;8.880;2022-12-29T12:13:55;2.47;;;1.80;;
65035;SDS011;51603;49.300;8.880;2022-12-29T12:16:43;4.67;;;2.47;;
65035;SDS011;51603;49.300;8.880;2022-12-29T12:22:26;3.50;;;2.00;;
65035;SDS011;51603;49.300;8.880;2022-12-29T12:24:59;3.73;;;2.23;;
65035;SDS011;51603;49.300;8.880;2022-12-29T12:30:21;3.13;;;2.30;;
65035;SDS011;51603;49.300;8.880;2022-12-29T12:38:51;3.37;;;2.23;;
65035;SDS011;51603;49.300;8.880;2022-12-29T12:40:58;2.73;;;2.00;;
65035;SDS011;51603;49.300;8.880;2022-12-29T12:46:29;2.30;;;2.00;;
65035;SDS011;51603;49.300;8.880;2022-12-29T12:52:19;2.43;;;1.70;;
65035;SDS011;51603;49.300;8.880;2022-12-29T12:55:15;3.27;;;2.13;;
65035;SDS011;51603;49.300;8.880;2022-12-29T13:00:23;4.00;;;1.70;;
65035;SDS011;51603;49.300;8.880;2022-12-29T13:03:08;3.67;;;3.00;;
65035;SDS011;51603;49.300;8.880;2022-12-29T13:14:49;2.57;;;1.60;;
65035;SDS011;51603;49.300;8.880;2022-12-29T13:23:26;5.00;;;2.37;;
65035;SDS011;51603;49.300;8.880;2022-12-29T13:26:21;4.00;;;2.33;;
65035;SDS011;51603;49.300;8.880;2022-12-29T13:29:12;3.40;;;1.90;;
65035;SDS011;51603;49.300;8.880;2022-12-29T13:37:14;3.20;;;1.60;;
65035;SDS011;51603;49.300;8.880;2022-12-29T13:39:51;4.30;;;1.30;;
65035;SDS011;51603;49.300;8.880;2022-12-29T13:42:21;2.17;;;1.50;;
65035;SDS011;51603;49.300;8.880;2022-12-29T13:44:51;2.33;;;1.63;;
65035;SDS011;51603;49.300;8.880;2022-12-29T13:47:37;2.53;;;1.50;;
65035;SDS011;51603;49.300;8.880;2022-12-29T13:50:20;3.30;;;1.67;;
65035;SDS011;51603;49.300;8.880;2022-12-29T13:52:58;1.70;;;1.50;;
65035;SDS011;51603;49.300;8.880;2022-12-29T13:55:49;2.00;;;1.67;;
65035;SDS011;51603;49.300;8.880;2022-12-29T13:58:30;2.00;;;1.80;;
65035;SDS011;51603;49.300;8.880;2022-12-29T14:01:10;2.10;;;1.90;;
65035;SDS011;51603;49.300;8.880;2022-12-29T14:04:16;2.77;;;2.57;;
65035;SDS011;51603;49.300;8.880;2022-12-29T14:06:57;3.13;;;2.73;;
65035;SDS011;51603;49.300;8.880;2022-12-29T14:09:41;4.57;;;2.50;;
65035;SDS011;51603;49.300;8.880;2022-12-29T14:15:14;4.03;;;1.60;;
65035;SDS011;51603;49.300;8.880;2022-12-29T14:17:45;2.37;;;1.80;;
65035;SDS011;51603;49.300;8.880;2022-12-29T14:20:48;5.10;;;3.20;;
65035;SDS011;51603;49.300;8.880;2022-12-29T14:23:45;3.27;;;2.87;;
65035;SDS011;51603;49.300;8.880;2022-12-29T14:28:56;2.70;;;1.30;;
65035;SDS011;51603;49.300;8.880;2022-12-29T14:31:40;4.37;;;2.27;;
65035;SDS011;51603;49.300;8.880;2022-12-29T14:36:41;2.97;;;1.93;;
65035;SDS011;51603;49.300;8.880;2022-12-29T14:42:22;5.83;;;2.37;;
65035;SDS011;51603;49.300;8.880;2022-12-29T14:44:58;2.70;;;1.90;;
65035;SDS011;51603;49.300;8.880;2022-12-29T14:47:46;3.30;;;2.20;;
65035;SDS011;51603;49.300;8.880;2022-12-29T14:50:15;2.83;;;2.10;;
65035;SDS011;51603;49.300;8.880;2022-12-29T14:53:06;3.77;;;2.17;;
65035;SDS011;51603;49.300;8.880;2022-12-29T14:56:09;1.40;;;1.10;;
65035;SDS011;51603;49.300;8.880;2022-12-29T15:03:58;2.33;;;1.40;;
65035;SDS011;51603;49.300;8.880;2022-12-29T15:06:29;3.47;;;2.77;;
65035;SDS011;51603;49.300;8.880;2022-12-29T15:09:03;5.00;;;2.20;;
65035;SDS011;51603;49.300;8.880;2022-12-29T15:11:49;3.73;;;2.00;;
65035;SDS011;51603;49.300;8.880;2022-12-29T15:14:32;3.70;;;2.50;;
65035;SDS011;51603;49.300;8.880;2022-12-29T15:17:10;2.37;;;1.50;;
65035;SDS011;51603;49.300;8.880;2022-12-29T15:19:48;3.83;;;3.00;;
65035;SDS011;51603;49.300;8.880;2022-12-29T15:22:14;4.60;;;1.93;;
65035;SDS011;51603;49.300;8.880;2022-12-29T15:24:42;3.67;;;2.40;;
65035;SDS011;51603;49.300;8.880;2022-12-29T15:27:15;5.23;;;2.73;;
65035;SDS011;51603;49.300;8.880;2022-12-29T15:29:44;12.20;;;11.00;;
65035;SDS011;51603;49.300;8.880;2022-12-29T15:32:21;6.83;;;4.63;;
65035;SDS011;51603;49.300;8.880;2022-12-29T15:34:49;3.57;;;2.77;;
65035;SDS011;51603;49.300;8.880;2022-12-29T15:37:27;5.80;;;3.70;;
65035;SDS011;51603;49.300;8.880;2022-12-29T15:39:56;4.37;;;3.97;;
65035;SDS011;51603;49.300;8.880;2022-12-29T15:45:14;6.20;;;5.60;;
65035;SDS011;51603;49.300;8.880;2022-12-29T15:47:41;11.00;;;9.33;;
65035;SDS011;51603;49.300;8.880;2022-12-29T15:50:21;18.53;;;13.57;;
65035;SDS011;51603;49.300;8.880;2022-12-29T15:52:50;18.07;;;15.50;;
65035;SDS011;51603;49.300;8.880;2022-12-29T15:55:18;9.40;;;5.07;;
65035;SDS011;51603;49.300;8.880;2022-12-29T15:57:59;6.30;;;5.70;;
65035;SDS011;51603;49.300;8.880;2022-12-29T16:00:28;6.23;;;5.63;;
65035;SDS011;51603;49.300;8.880;2022-12-29T16:02:57;8.63;;;7.87;;
65035;SDS011;51603;49.300;8.880;2022-12-29T16:05:30;13.60;;;11.93;;
65035;SDS011;51603;49.300;8.880;2022-12-29T16:07:59;6.43;;;5.83;;
65035;SDS011;51603;49.300;8.880;2022-12-29T16:10:26;11.90;;;10.90;;
65035;SDS011;51603;49.300;8.880;2022-12-29T16:13:13;15.00;;;12.67;;
65035;SDS011;51603;49.300;8.880;2022-12-29T16:16:29;11.07;;;9.30;;
65035;SDS011;51603;49.300;8.880;2022-12-29T16:19:11;10.40;;;8.70;;
65035;SDS011;51603;49.300;8.880;2022-12-29T16:21:39;10.40;;;8.47;;
65035;SDS011;51603;49.300;8.880;2022-12-29T16:24:07;8.57;;;7.70;;
65035;SDS011;51603;49.300;8.880;2022-12-29T16:26:39;9.20;;;8.00;;
65035;SDS011;51603;49.300;8.880;2022-12-29T16:29:14;9.43;;;7.60;;
65035;SDS011;51603;49.300;8.880;2022-12-29T16:31:49;12.20;;;8.63;;
65035;SDS011;51603;49.300;8.880;2022-12-29T16:34:24;7.03;;;5.10;;
65035;SDS011;51603;49.300;8.880;2022-12-29T16:41:56;4.40;;;4.00;;
65035;SDS011;51603;49.300;8.880;2022-12-29T16:44:23;6.43;;;3.20;;
65035;SDS011;51603;49.300;8.880;2022-12-29T16:49:35;2.63;;;2.43;;
65035;SDS011;51603;49.300;8.880;2022-12-29T16:52:13;5.30;;;2.87;;
65035;SDS011;51603;49.300;8.880;2022-12-29T16:54:48;3.73;;;2.30;;
65035;SDS011;51603;49.300;8.880;2022-12-29T16:57:21;7.10;;;3.20;;
65035;SDS011;51603;49.300;8.880;2022-12-29T16:59:53;3.33;;;2.40;;
65035;SDS011;51603;49.300;8.880;2022-12-29T17:02:22;4.77;;;2.87;;
65035;SDS011;51603;49.300;8.880;2022-12-29T17:04:50;5.20;;;3.10;;
65035;SDS011;51603;49.300;8.880;2022-12-29T17:07:18;5.50;;;3.80;;
65035;SDS011;51603;49.300;8.880;2022-12-29T17:09:45;3.53;;;2.93;;
65035;SDS011;51603;49.300;8.880;2022-12-29T17:12:18;6.17;;;3.20;;
65035;SDS011;51603;49.300;8.880;2022-12-29T17:14:47;4.97;;;3.27;;
65035;SDS011;51603;49.300;8.880;2022-12-29T17:19:47;4.50;;;2.87;;
65035;SDS011;51603;49.300;8.880;2022-12-29T17:22:23;5.80;;;3.70;;
65035;SDS011;51603;49.300;8.880;2022-12-29T17:24:51;5.83;;;3.80;;
65035;SDS011;51603;49.300;8.880;2022-12-29T17:27:30;5.87;;;5.37;;
65035;SDS011;51603;49.300;8.880;2022-12-29T17:29:58;11.20;;;10.20;;
65035;SDS011;51603;49.300;8.880;2022-12-29T17:32:27;11.13;;;9.50;;
65035;SDS011;51603;49.300;8.880;2022-12-29T17:34:53;10.20;;;9.20;;